< Typhoon 199621 1996 Season Typhoon 199623 >
Typhoon 199622 (BETH)
General InformationTrack Information on Google MapsDetailed Wind InformationList of All Images || Disaster Info.ResourceGoogle EarthGE AnimationAtom FeedGeoJSON
Detalied Best Track (Time Zone = UTC)
Year Month Day Hour Lat. Long. Pressure (hPa) Wind (kt) Class Image Chart
1996 10 11 12 14.6 145.8 1008 0 2 Image Chart
1996 10 11 18 14.3 143.0 1008 0 2 Image Chart
1996 10 12 00 14.3 141.4 1008 0 2 Image Chart
1996 10 12 06 13.9 139.6 1008 0 2 Image Chart
1996 10 12 12 14.0 138.3 1008 0 2 Image Chart
1996 10 12 18 14.1 137.2 1008 0 2 Image Chart
1996 10 13 00 15.2 136.3 1008 0 2 Image Chart
1996 10 13 06 15.8 135.0 1004 0 2 Image Chart
1996 10 13 12 15.8 134.0 1004 0 2 Image Chart
1996 10 13 18 15.7 133.0 1006 0 2 Image Chart
1996 10 14 00 15.7 131.9 1006 0 2 Image Chart
1996 10 14 06 16.0 130.9 1004 0 2 Image Chart
1996 10 14 12 16.4 130.2 1004 0 2 Image Chart
1996 10 14 18 16.8 130.2 1004 0 2 Image Chart
1996 10 15 00 17.0 130.2 1004 0 2 Image Chart
1996 10 15 06 17.7 129.8 1004 0 2 Image Chart
1996 10 15 12 17.9 128.9 1004 0 2 Image Chart
1996 10 15 18 17.8 128.0 1004 0 2 Image Chart
1996 10 16 00 17.7 127.3 996 35 3 Image Chart
1996 10 16 06 17.7 126.7 994 40 3 Image Chart
1996 10 16 12 17.6 125.9 985 50 4 Image Chart
1996 10 16 18 17.6 125.0 985 50 4 Image Chart
1996 10 17 00 17.5 124.2 980 55 4 Image Chart
1996 10 17 06 17.5 123.3 975 60 4 Image Chart
1996 10 17 12 17.7 122.7 975 60 4 Image Chart
1996 10 17 18 17.8 122.0 975 60 4 Image Chart
1996 10 18 00 18.0 121.2 980 55 4 Image Chart
1996 10 18 06 18.3 120.6 980 55 4 Image Chart
1996 10 18 12 18.5 119.9 980 55 4 Image Chart
1996 10 18 18 18.7 119.1 980 55 4 Image Chart
1996 10 19 00 18.7 118.3 980 55 4 Image Chart
1996 10 19 06 18.6 117.5 980 55 4 Image Chart
1996 10 19 12 18.3 116.7 980 55 4 Image Chart
1996 10 19 18 17.8 115.7 985 50 4 Image Chart
1996 10 20 00 17.4 114.8 990 45 3 Image Chart
1996 10 20 06 17.1 113.8 990 45 3 Image Chart
1996 10 20 12 16.9 113.2 996 40 3 Image Chart
1996 10 20 18 16.3 112.3 996 40 3 Image Chart
1996 10 21 00 15.5 111.6 1000 0 2 Image Chart
1996 10 21 06 14.9 110.8 1002 0 2 Image Chart
1996 10 21 12 14.2 110.5 1004 0 2 Image Chart
1996 10 21 18 13.5 110.2 1004 0 2 Image Chart
1996 10 22 00 12.8 110.2 1004 0 2 Image Chart
Japan Meteorological Agency Best Track Data | Correction Date : 1997-01-07
< Typhoon 199621 1996 Season Typhoon 199623 >

Help